createdAt,value
2016-04-04T00:00:20.734Z,0
2016-04-04T00:01:20.737Z,0
2016-04-04T00:02:20.723Z,0
2016-04-04T00:03:20.758Z,0
2016-04-04T00:04:20.760Z,0
2016-04-04T00:05:20.732Z,0
2016-04-04T00:06:20.781Z,0
2016-04-04T00:07:20.784Z,0
2016-04-04T00:08:20.771Z,0
2016-04-04T00:09:20.773Z,0
2016-04-04T00:10:20.776Z,0
2016-04-04T00:11:20.811Z,0
2016-04-04T00:12:20.829Z,0
2016-04-04T00:13:20.800Z,0
2016-04-04T00:14:20.787Z,0
2016-04-04T00:15:20.806Z,0
2016-04-04T00:16:20.840Z,0
2016-04-04T00:17:20.874Z,0
2016-04-04T00:18:20.829Z,0
2016-04-04T00:19:20.863Z,0
2016-04-04T00:20:20.850Z,0
2016-04-04T00:21:20.853Z,0
2016-04-04T00:22:20.856Z,0
2016-04-04T00:23:20.858Z,0
2016-04-04T00:24:20.877Z,0
2016-04-04T00:25:20.863Z,0
2016-04-04T00:26:20.757Z,0
2016-04-04T00:27:20.854Z,0
2016-04-04T00:28:20.888Z,0
2016-04-04T00:29:20.874Z,0
2016-04-04T00:30:20.877Z,0
2016-04-04T00:31:20.879Z,0
2016-04-04T00:32:20.914Z,0
2016-04-04T00:33:20.932Z,0
2016-04-04T00:34:20.904Z,0
2016-04-04T00:35:20.937Z,0
2016-04-04T00:36:20.878Z,0
2016-04-04T00:37:20.942Z,0
2016-04-04T00:38:20.945Z,0
2016-04-04T00:39:20.949Z,0
2016-04-04T00:40:20.950Z,0
2016-04-04T00:41:20.954Z,0
2016-04-04T00:42:20.941Z,0
2016-04-04T00:43:20.958Z,0
2016-04-04T00:44:20.977Z,0
2016-04-04T00:45:20.950Z,0
2016-04-04T00:46:20.952Z,0
2016-04-04T00:47:20.986Z,0
2016-04-04T00:48:20.972Z,0
2016-04-04T00:49:21.006Z,0
2016-04-04T00:50:20.962Z,0
2016-04-04T00:51:20.980Z,0
2016-04-04T00:52:20.983Z,0
2016-04-04T00:53:20.971Z,0
2016-04-04T00:54:21.035Z,0
2016-04-04T00:55:21.038Z,0
2016-04-04T00:56:21.025Z,0
2016-04-04T00:57:20.997Z,0
2016-04-04T00:58:20.999Z,0
2016-04-04T00:59:20.987Z,0
2016-04-04T01:00:20.817Z,0
2016-04-04T01:01:21.038Z,0
2016-04-04T01:02:21.073Z,0
2016-04-04T01:03:21.044Z,0
2016-04-04T01:04:21.032Z,0
2016-04-04T01:05:21.034Z,0
2016-04-04T01:06:21.006Z,0
2016-04-04T01:07:21.024Z,0
2016-04-04T01:08:21.058Z,0
2016-04-04T01:09:20.264Z,0
2016-04-04T01:10:21.032Z,0
2016-04-04T01:11:21.066Z,0
2016-04-04T01:12:21.053Z,0
2016-04-04T01:13:21.071Z,0
2016-04-04T01:14:21.058Z,0
2016-04-04T01:15:21.061Z,0
2016-04-04T01:16:21.095Z,0
2016-04-04T01:17:21.066Z,0
2016-04-04T01:18:21.084Z,0
2016-04-04T01:19:21.087Z,0
2016-04-04T01:20:21.074Z,0
2016-04-04T01:21:21.092Z,0
2016-04-04T01:22:21.111Z,0
2016-04-04T01:23:21.098Z,0
2016-04-04T01:24:21.133Z,0
2016-04-04T01:25:21.103Z,0
2016-04-04T01:26:21.138Z,0
2016-04-04T01:27:21.108Z,0
2016-04-04T01:28:21.111Z,0
2016-04-04T01:29:21.098Z,0
2016-04-04T01:30:21.132Z,0
2016-04-04T01:31:21.151Z,0
2016-04-04T01:32:21.122Z,0
2016-04-04T01:33:21.157Z,0
2016-04-04T01:34:21.143Z,0
2016-04-04T01:35:21.162Z,0
2016-04-04T01:36:21.149Z,0
2016-04-04T01:37:21.168Z,0
2016-04-04T01:38:21.170Z,0
2016-04-04T01:39:21.157Z,0
2016-04-04T01:40:21.176Z,0
2016-04-04T01:41:21.193Z,0
2016-04-04T01:42:21.165Z,0
2016-04-04T01:43:21.183Z,0
2016-04-04T01:44:21.170Z,0
2016-04-04T01:45:21.189Z,0
2016-04-04T01:46:21.191Z,0
2016-04-04T01:47:21.194Z,0
2016-04-04T01:48:21.024Z,0
2016-04-04T01:49:21.214Z,0
2016-04-04T01:50:21.217Z,0
2016-04-04T01:51:21.204Z,0
2016-04-04T01:52:21.222Z,0
2016-04-04T01:53:21.225Z,0
2016-04-04T01:54:21.212Z,0
2016-04-04T01:55:21.230Z,0
2016-04-04T01:56:21.249Z,0
2016-04-04T01:57:21.221Z,0
2016-04-04T01:58:21.238Z,0
2016-04-04T01:59:21.241Z,0
2016-04-04T02:00:21.249Z,0
2016-04-04T02:01:21.237Z,0
2016-04-04T02:02:21.255Z,0
2016-04-04T02:03:21.257Z,0
2016-04-04T02:04:21.260Z,0
2016-04-04T02:05:21.262Z,0
2016-04-04T02:06:21.296Z,0
2016-04-04T02:07:21.268Z,0
2016-04-04T02:08:21.270Z,0
2016-04-04T02:09:21.289Z,0
2016-04-04T02:10:21.307Z,0
2016-04-04T02:11:21.295Z,0
2016-04-04T02:12:21.297Z,0
2016-04-04T02:13:21.300Z,0
2016-04-04T02:14:21.303Z,0
2016-04-04T02:15:21.321Z,0
2016-04-04T02:16:21.308Z,0
2016-04-04T02:17:21.342Z,0
2016-04-04T02:18:21.313Z,0
2016-04-04T02:19:21.347Z,0
2016-04-04T02:20:21.334Z,0
2016-04-04T02:21:21.353Z,0
2016-04-04T02:22:21.340Z,0
2016-04-04T02:23:21.358Z,0
2016-04-04T02:24:21.361Z,0
2016-04-04T02:25:21.379Z,0
2016-04-04T02:26:21.350Z,0
2016-04-04T02:27:21.369Z,0
2016-04-04T02:28:21.356Z,0
2016-04-04T02:29:21.374Z,0
2016-04-04T02:30:21.377Z,0
2016-04-04T02:31:21.380Z,0
2016-04-04T02:32:21.382Z,0
2016-04-04T02:33:21.385Z,0
2016-04-04T02:34:21.372Z,0
2016-04-04T02:35:21.374Z,0
2016-04-04T02:36:21.409Z,0
2016-04-04T02:37:21.412Z,0
2016-04-04T02:38:21.398Z,0
2016-04-04T02:39:21.401Z,0
2016-04-04T02:40:21.420Z,0
2016-04-04T02:41:21.422Z,0
2016-04-04T02:42:21.409Z,0
2016-04-04T02:43:21.428Z,0
2016-04-04T02:44:21.446Z,0
2016-04-04T02:45:21.448Z,0
2016-04-04T02:46:21.420Z,0
2016-04-04T02:47:21.454Z,0
2016-04-04T02:48:21.456Z,0
2016-04-04T02:49:21.444Z,0
2016-04-04T02:50:21.461Z,0
2016-04-04T02:51:21.449Z,0
2016-04-04T02:52:21.467Z,0
2016-04-04T02:53:21.454Z,0
2016-04-04T02:54:21.472Z,0
2016-04-04T02:55:21.460Z,0
2016-04-04T02:56:21.462Z,0
2016-04-04T02:57:21.481Z,0
2016-04-04T02:58:21.483Z,0
2016-04-04T02:59:21.471Z,0
2016-04-04T03:00:21.473Z,0
2016-04-04T03:01:21.508Z,0
2016-04-04T03:02:21.510Z,0
2016-04-04T03:03:21.512Z,0
2016-04-04T03:04:21.500Z,0
2016-04-04T03:05:21.502Z,0
2016-04-04T03:06:21.505Z,0
2016-04-04T03:07:21.507Z,0
2016-04-04T03:08:21.363Z,0
2016-04-04T03:09:21.538Z,0
2016-04-04T03:10:21.524Z,0
2016-04-04T03:11:21.543Z,0
2016-04-04T03:12:21.530Z,0
2016-04-04T03:13:21.579Z,0
2016-04-04T03:14:21.566Z,0
2016-04-04T03:15:21.569Z,0
2016-04-04T03:16:21.556Z,0
2016-04-04T03:17:21.574Z,0
2016-04-04T03:18:21.546Z,0
2016-04-04T03:19:21.580Z,0
2016-04-04T03:20:21.582Z,0
2016-04-04T03:21:21.585Z,0
2016-04-04T03:22:21.588Z,0
2016-04-04T03:23:21.606Z,0
2016-04-04T03:24:21.578Z,0
2016-04-04T03:25:21.581Z,0
2016-04-04T03:26:21.598Z,0
2016-04-04T03:27:21.586Z,0
2016-04-04T03:28:21.604Z,0
2016-04-04T03:29:21.622Z,0
2016-04-04T03:30:21.609Z,0
2016-04-04T03:31:21.628Z,0
2016-04-04T03:32:21.630Z,0
2016-04-04T03:33:21.664Z,0
2016-04-04T03:34:21.620Z,0
2016-04-04T03:35:21.623Z,0
2016-04-04T03:36:21.641Z,0
2016-04-04T03:37:21.628Z,0
2016-04-04T03:38:21.647Z,0
2016-04-04T03:39:21.666Z,0
2016-04-04T03:40:21.636Z,0
2016-04-04T03:41:21.654Z,0
2016-04-04T03:42:21.642Z,0
2016-04-04T03:43:21.660Z,0
2016-04-04T03:44:21.662Z,0
2016-04-04T03:45:21.666Z,0
2016-04-04T03:46:21.685Z,0
2016-04-04T03:47:21.702Z,0
2016-04-04T03:48:21.736Z,0
2016-04-04T03:49:21.677Z,0
2016-04-04T03:50:21.788Z,0
2016-04-04T03:51:21.728Z,0
2016-04-04T03:52:21.684Z,0
2016-04-04T03:53:21.687Z,0
2016-04-04T03:54:21.721Z,0
2016-04-04T03:55:21.708Z,0
2016-04-04T03:56:21.726Z,0
2016-04-04T03:57:21.714Z,0
2016-04-04T03:58:21.732Z,0
2016-04-04T03:59:21.750Z,0
2016-04-04T04:00:21.722Z,0
2016-04-04T04:01:21.756Z,0
2016-04-04T04:02:21.742Z,0
2016-04-04T04:03:21.745Z,0
2016-04-04T04:04:21.733Z,0
2016-04-04T04:05:21.797Z,0
2016-04-04T04:06:21.754Z,0
2016-04-04T04:07:21.789Z,0
2016-04-04T04:08:21.759Z,0
2016-04-04T04:09:21.762Z,0
2016-04-04T04:10:21.781Z,0
2016-04-04T04:11:21.799Z,0
2016-04-04T04:12:21.755Z,0
2016-04-04T04:13:21.805Z,0
2016-04-04T04:14:21.792Z,0
2016-04-04T04:15:21.794Z,0
2016-04-04T04:16:21.797Z,0
2016-04-04T04:17:21.800Z,0
2016-04-04T04:18:21.818Z,0
2016-04-04T04:19:21.836Z,0
2016-04-04T04:20:21.807Z,0
2016-04-04T04:21:21.842Z,0
2016-04-04T04:22:21.813Z,0
2016-04-04T04:23:21.799Z,0
2016-04-04T04:24:21.819Z,0
2016-04-04T04:25:21.805Z,0
2016-04-04T04:26:21.840Z,0
2016-04-04T04:27:21.857Z,0
2016-04-04T04:28:21.861Z,4
2016-04-04T04:29:21.863Z,4
2016-04-04T04:30:21.865Z,4
2016-04-04T04:31:21.837Z,4
2016-04-04T04:32:21.839Z,0
2016-04-04T04:33:21.859Z,4
2016-04-04T04:34:21.861Z,4
2016-04-04T04:35:21.895Z,8
2016-04-04T04:36:21.898Z,4
2016-04-04T04:37:21.884Z,8
2016-04-04T04:38:21.872Z,8
2016-04-04T04:39:21.905Z,8
2016-04-04T04:40:21.940Z,12
2016-04-04T04:41:21.926Z,12
2016-04-04T04:42:21.898Z,12
2016-04-04T04:43:21.869Z,16
2016-04-04T04:44:21.888Z,20
2016-04-04T04:45:21.937Z,20
2016-04-04T04:46:21.924Z,24
2016-04-04T04:47:21.927Z,28
2016-04-04T04:48:21.899Z,32
2016-04-04T04:49:21.917Z,36
2016-04-04T04:50:21.919Z,40
2016-04-04T04:51:21.922Z,44
2016-04-04T04:52:21.956Z,48
2016-04-04T04:53:21.912Z,52
2016-04-04T04:54:21.961Z,56
2016-04-04T04:55:21.963Z,64
2016-04-04T04:56:21.951Z,64
2016-04-04T04:57:21.954Z,72
2016-04-04T04:58:21.972Z,76
2016-04-04T04:59:21.974Z,88
2016-04-04T05:00:21.962Z,96
2016-04-04T05:01:21.980Z,104
2016-04-04T05:02:21.967Z,112
2016-04-04T05:03:21.971Z,124
2016-04-04T05:04:21.973Z,136
2016-04-04T05:05:21.976Z,152
2016-04-04T05:06:21.978Z,168
2016-04-04T05:07:21.981Z,184
2016-04-04T05:08:21.999Z,196
2016-04-04T05:09:22.001Z,216
2016-04-04T05:10:21.973Z,228
2016-04-04T05:11:22.022Z,248
2016-04-04T05:12:22.042Z,264
2016-04-04T05:13:21.997Z,280
2016-04-04T05:14:22.046Z,296
2016-04-04T05:15:21.893Z,324
2016-04-04T05:16:22.037Z,356
2016-04-04T05:17:22.023Z,376
2016-04-04T05:18:22.057Z,388
2016-04-04T05:19:22.061Z,396
2016-04-04T05:20:22.031Z,408
2016-04-04T05:21:22.049Z,424
2016-04-04T05:22:22.052Z,440
2016-04-04T05:23:22.055Z,472
2016-04-04T05:24:22.136Z,492
2016-04-04T05:25:34.904Z,524
2016-04-04T05:26:34.662Z,564
2016-04-04T05:27:22.530Z,588
2016-04-04T05:28:22.302Z,620
2016-04-04T05:29:22.102Z,628
2016-04-04T05:30:22.152Z,648
2016-04-04T05:31:22.077Z,696
2016-04-04T05:32:22.110Z,744
2016-04-04T05:33:21.973Z,800
2016-04-04T05:34:22.162Z,856
2016-04-04T05:35:22.103Z,916
2016-04-04T05:36:22.106Z,980
2016-04-04T05:37:22.124Z,1076
2016-04-04T05:38:22.127Z,1136
2016-04-04T05:39:22.114Z,1164
2016-04-04T05:40:22.132Z,1196
2016-04-04T05:41:22.134Z,1220
2016-04-04T05:42:22.153Z,1244
2016-04-04T05:43:22.125Z,1236
2016-04-04T05:44:22.142Z,1240
2016-04-04T05:45:22.193Z,1244
2016-04-04T05:46:21.992Z,1244
2016-04-04T05:47:22.167Z,1228
2016-04-04T05:48:22.186Z,1220
2016-04-04T05:49:22.156Z,1236
2016-04-04T05:50:22.159Z,1276
2016-04-04T05:51:22.177Z,1340
2016-04-04T05:52:22.180Z,1384
2016-04-04T05:53:22.166Z,1408
2016-04-04T05:54:22.186Z,1412
2016-04-04T05:55:22.219Z,1416
2016-04-04T05:56:22.174Z,1432
2016-04-04T05:57:22.178Z,1476
2016-04-04T05:58:22.228Z,1544
2016-04-04T05:59:22.215Z,1604
2016-04-04T06:00:22.232Z,1632
2016-04-04T06:01:22.188Z,1652
2016-04-04T06:02:22.207Z,1676
2016-04-04T06:03:22.209Z,1716
2016-04-04T06:04:22.228Z,1732
2016-04-04T06:05:22.215Z,1768
2016-04-04T06:06:22.234Z,1824
2016-04-04T06:07:22.220Z,1884
2016-04-04T06:08:22.239Z,1948
2016-04-04T06:09:22.257Z,2004
2016-04-04T06:10:22.259Z,2060
2016-04-04T06:11:22.231Z,2124
2016-04-04T06:12:22.250Z,2248
2016-04-04T06:13:22.267Z,2388
2016-04-04T06:14:22.317Z,2536
2016-04-04T06:15:22.336Z,2724
2016-04-04T06:16:22.275Z,2864
2016-04-04T06:17:22.263Z,2944
2016-04-04T06:18:22.281Z,3032
2016-04-04T06:19:22.284Z,3208
2016-04-04T06:20:22.317Z,3392
2016-04-04T06:21:22.289Z,3544
2016-04-04T06:22:22.277Z,3736
2016-04-04T06:23:22.325Z,3880
2016-04-04T06:24:22.313Z,4028
2016-04-04T06:25:22.299Z,4036
2016-04-04T06:26:22.318Z,4140
2016-04-04T06:27:22.321Z,4156
2016-04-04T06:28:22.354Z,4604
2016-04-04T06:29:22.311Z,4612
2016-04-04T06:30:22.329Z,4852
2016-04-04T06:31:22.363Z,4992
2016-04-04T06:32:22.349Z,4404
2016-04-04T06:33:22.338Z,4200
2016-04-04T06:34:22.371Z,4452
2016-04-04T06:35:22.389Z,4180
2016-04-04T06:36:22.361Z,4052
2016-04-04T06:37:22.363Z,4212
2016-04-04T06:38:22.382Z,4404
2016-04-04T06:39:22.384Z,4480
2016-04-04T06:40:22.371Z,4760
2016-04-04T06:41:22.437Z,5748
2016-04-04T06:42:22.392Z,5516
2016-04-04T06:43:22.395Z,6080
2016-04-04T06:44:22.382Z,6212
2016-04-04T06:45:22.432Z,5324
2016-04-04T06:46:22.434Z,4964
2016-04-04T06:47:22.422Z,4720
2016-04-04T06:48:22.456Z,4648
2016-04-04T06:49:22.458Z,4528
2016-04-04T06:50:22.461Z,4540
2016-04-04T06:51:22.447Z,4584
2016-04-04T06:52:22.466Z,4600
2016-04-04T06:53:22.453Z,4676
2016-04-04T06:54:22.488Z,4496
2016-04-04T06:55:22.490Z,4344
2016-04-04T06:56:22.493Z,4120
2016-04-04T06:57:22.511Z,3932
2016-04-04T06:58:22.482Z,3884
2016-04-04T06:59:22.501Z,3908
2016-04-04T07:00:22.535Z,4052
2016-04-04T07:01:22.558Z,4188
2016-04-04T07:02:22.592Z,5520
2016-04-04T07:03:22.610Z,5028
2016-04-04T07:04:22.534Z,4200
2016-04-04T07:05:22.538Z,4196
2016-04-04T07:06:22.556Z,4612
2016-04-04T07:07:22.559Z,4940
2016-04-04T07:08:22.561Z,5620
2016-04-04T07:09:22.595Z,5532
2016-04-04T07:10:22.581Z,6476
2016-04-04T07:11:22.569Z,7476
2016-04-04T07:12:22.587Z,7252
2016-04-04T07:13:22.589Z,6900
2016-04-04T07:14:22.625Z,6644
2016-04-04T07:15:22.627Z,7176
2016-04-04T07:16:22.488Z,7232
2016-04-04T07:17:22.632Z,7204
2016-04-04T07:18:22.635Z,7064
2016-04-04T07:19:22.606Z,6956
2016-04-04T07:20:22.686Z,7208
2016-04-04T07:21:22.690Z,7444
2016-04-04T07:22:22.708Z,7708
2016-04-04T07:23:22.695Z,7976
2016-04-04T07:24:22.697Z,8240
2016-04-04T07:25:22.700Z,8636
2016-04-04T07:26:22.703Z,8772
2016-04-04T07:27:22.691Z,8860
2016-04-04T07:28:22.693Z,8928
2016-04-04T07:29:22.726Z,8908
2016-04-04T07:30:22.730Z,8964
2016-04-04T07:31:22.733Z,8976
2016-04-04T07:32:22.751Z,8900
2016-04-04T07:33:22.753Z,9064
2016-04-04T07:34:22.741Z,9000
2016-04-04T07:35:22.789Z,9016
2016-04-04T07:36:22.777Z,8948
2016-04-04T07:37:22.811Z,8932
2016-04-04T07:38:22.814Z,8948
2016-04-04T07:39:22.785Z,9052
2016-04-04T07:40:22.820Z,9060
2016-04-04T07:41:22.853Z,8988
2016-04-04T07:42:22.886Z,8960
2016-04-04T07:43:22.843Z,9084
2016-04-04T07:44:22.862Z,8756
2016-04-04T07:45:22.864Z,8448
2016-04-04T07:46:22.866Z,8336
2016-04-04T07:47:22.884Z,8296
2016-04-04T07:48:22.903Z,8244
2016-04-04T07:49:22.906Z,8172
2016-04-04T07:50:22.939Z,7944
2016-04-04T07:51:22.927Z,7556
2016-04-04T07:52:22.960Z,7260
2016-04-04T07:53:22.964Z,7032
2016-04-04T07:54:22.935Z,7080
2016-04-04T07:55:22.984Z,6956
2016-04-04T07:56:22.972Z,7008
2016-04-04T07:57:22.818Z,7092
2016-04-04T07:58:22.993Z,7204
2016-04-04T07:59:23.010Z,7288
2016-04-04T08:00:23.029Z,7328
2016-04-04T08:01:23.031Z,7400
2016-04-04T08:02:23.066Z,7608
2016-04-04T08:03:23.037Z,7652
2016-04-04T08:04:23.071Z,7604
2016-04-04T08:05:23.043Z,7696
2016-04-04T08:06:23.061Z,7860
2016-04-04T08:07:23.063Z,8264
2016-04-04T08:08:23.065Z,8688
2016-04-04T08:09:23.084Z,9348
2016-04-04T08:10:23.103Z,9728
2016-04-04T08:11:23.121Z,10456
2016-04-04T08:12:23.123Z,11240
2016-04-04T08:13:23.111Z,11868
2016-04-04T08:14:23.097Z,11824
2016-04-04T08:15:23.163Z,11460
2016-04-04T08:16:23.166Z,10668
2016-04-04T08:17:23.184Z,9148
2016-04-04T08:18:23.156Z,8376
2016-04-04T08:19:23.174Z,7940
2016-04-04T08:20:23.177Z,7500
2016-04-04T08:21:23.195Z,6944
2016-04-04T08:22:23.182Z,6276
2016-04-04T08:23:23.200Z,5584
2016-04-04T08:24:23.219Z,5020
2016-04-04T08:25:23.237Z,4512
2016-04-04T08:26:23.255Z,4092
2016-04-04T08:27:23.227Z,3852
2016-04-04T08:28:23.244Z,3752
2016-04-04T08:29:23.264Z,3728
2016-04-04T08:30:23.250Z,3776
2016-04-04T08:31:23.285Z,3912
2016-04-04T08:32:23.287Z,4140
2016-04-04T08:33:23.327Z,4512
2016-04-04T08:34:23.255Z,4648
2016-04-04T08:35:23.262Z,4876
2016-04-04T08:36:23.268Z,5164
2016-04-04T08:37:23.258Z,5492
2016-04-04T08:38:23.256Z,5876
2016-04-04T08:39:23.254Z,6272
2016-04-04T08:40:23.268Z,6704
2016-04-04T08:41:23.283Z,7028
2016-04-04T08:42:23.265Z,7272
2016-04-04T08:43:23.266Z,7516
2016-04-04T08:44:23.283Z,7732
2016-04-04T08:45:23.269Z,8044
2016-04-04T08:46:23.301Z,8216
2016-04-04T08:47:23.332Z,8272
2016-04-04T08:48:23.351Z,8324
2016-04-04T08:49:23.290Z,8616
2016-04-04T08:50:23.323Z,9288
2016-04-04T08:51:23.309Z,10404
2016-04-04T08:52:23.311Z,11064
2016-04-04T08:53:23.329Z,11784
2016-04-04T08:54:23.332Z,11908
2016-04-04T08:55:23.365Z,12140
2016-04-04T08:56:23.351Z,11544
2016-04-04T08:57:23.338Z,12284
2016-04-04T08:58:23.341Z,11344
2016-04-04T08:59:23.328Z,11936
2016-04-04T09:00:23.347Z,12080
2016-04-04T09:01:23.411Z,11368
2016-04-04T09:02:23.398Z,10760
2016-04-04T09:03:23.402Z,10672
2016-04-04T09:04:23.404Z,10820
2016-04-04T09:05:23.391Z,10360
2016-04-04T09:06:24.346Z,10100
2016-04-04T09:07:23.396Z,9928
2016-04-04T09:08:23.399Z,9772
2016-04-04T09:09:23.402Z,9772
2016-04-04T09:10:23.435Z,9848
2016-04-04T09:11:23.423Z,9956
2016-04-04T09:12:23.472Z,10052
2016-04-04T09:13:23.443Z,10264
2016-04-04T09:14:23.478Z,10468
2016-04-04T09:15:23.481Z,10920
2016-04-04T09:16:23.514Z,11088
2016-04-04T09:17:23.470Z,11056
2016-04-04T09:18:23.473Z,11108
2016-04-04T09:19:23.506Z,11000
2016-04-04T09:20:23.494Z,10908
2016-04-04T09:21:23.481Z,10556
2016-04-04T09:22:23.545Z,10204
2016-04-04T09:23:23.502Z,9900
2016-04-04T09:24:23.505Z,9380
2016-04-04T09:25:23.539Z,9548
2016-04-04T09:26:23.572Z,9896
2016-04-04T09:27:23.559Z,10548
2016-04-04T09:28:23.578Z,11568
2016-04-04T09:29:23.236Z,12452
2016-04-04T09:30:23.567Z,12064
2016-04-04T09:31:23.602Z,11652
2016-04-04T09:32:23.572Z,11536
2016-04-04T09:33:23.575Z,12264
2016-04-04T09:34:23.610Z,10820
2016-04-04T09:35:23.596Z,10332
2016-04-04T09:36:23.615Z,9736
2016-04-04T09:37:23.649Z,8692
2016-04-04T09:38:23.621Z,7500
2016-04-04T09:39:23.607Z,6428
2016-04-04T09:40:23.610Z,5264
2016-04-04T09:41:23.612Z,4072
2016-04-04T09:42:23.615Z,3168
2016-04-04T09:43:23.696Z,2704
2016-04-04T09:44:23.668Z,2560
2016-04-04T09:45:23.687Z,2560
2016-04-04T09:46:23.689Z,2608
2016-04-04T09:47:23.691Z,2660
2016-04-04T09:48:23.710Z,2692
2016-04-04T09:49:23.713Z,2712
2016-04-04T09:50:23.684Z,2760
2016-04-04T09:51:23.717Z,2788
2016-04-04T09:52:23.689Z,2808
2016-04-04T09:53:23.691Z,2824
2016-04-04T09:54:23.710Z,2880
2016-04-04T09:55:23.729Z,2864
2016-04-04T09:56:23.716Z,2664
2016-04-04T09:57:23.750Z,2468
2016-04-04T09:58:23.767Z,2412
2016-04-04T09:59:23.770Z,2436
2016-04-04T10:00:23.727Z,2452
2016-04-04T10:01:23.745Z,2348
2016-04-04T10:02:23.748Z,2220
2016-04-04T10:03:23.766Z,2224
2016-04-04T10:04:23.768Z,2272
2016-04-04T10:05:23.786Z,2452
2016-04-04T10:06:23.789Z,2680
2016-04-04T10:07:23.792Z,2860
2016-04-04T10:08:23.794Z,2956
2016-04-04T10:09:23.802Z,3044
2016-04-04T10:10:23.789Z,3280
2016-04-04T10:11:23.793Z,3688
2016-04-04T10:12:23.795Z,3900
2016-04-04T10:13:23.813Z,3952
2016-04-04T10:14:23.815Z,3928
2016-04-04T10:15:23.803Z,4116
2016-04-04T10:16:23.806Z,4380
2016-04-04T10:17:23.793Z,4708
2016-04-04T10:18:23.811Z,5252
2016-04-04T10:19:23.829Z,5716
2016-04-04T10:20:23.863Z,6092
2016-04-04T10:21:23.834Z,6564
2016-04-04T10:22:23.822Z,7136
2016-04-04T10:23:23.840Z,7760
2016-04-04T10:24:23.858Z,8624
2016-04-04T10:25:23.861Z,9264
2016-04-04T10:26:23.848Z,10244
2016-04-04T10:27:23.851Z,10708
2016-04-04T10:28:23.853Z,11024
2016-04-04T10:29:23.856Z,11092
2016-04-04T10:30:23.874Z,11592
2016-04-04T10:31:23.877Z,11988
2016-04-04T10:32:23.863Z,12892
2016-04-04T10:33:23.883Z,13640
2016-04-04T10:34:23.886Z,13388
2016-04-04T10:35:23.888Z,13120
2016-04-04T10:36:23.890Z,13052
2016-04-04T10:37:23.909Z,12188
2016-04-04T10:38:23.895Z,11868
2016-04-04T10:39:23.929Z,11244
2016-04-04T10:40:23.839Z,10908
2016-04-04T10:41:23.935Z,10620
2016-04-04T10:42:23.969Z,10788
2016-04-04T10:43:23.956Z,11156
2016-04-04T10:44:23.928Z,11536
2016-04-04T10:45:23.931Z,11828
2016-04-04T10:46:23.949Z,11888
2016-04-04T10:47:23.951Z,11784
2016-04-04T10:48:23.970Z,11616
2016-04-04T10:49:23.956Z,11360
2016-04-04T10:50:23.959Z,11080
2016-04-04T10:51:23.978Z,10908
2016-04-04T10:52:23.965Z,10760
2016-04-04T10:53:23.983Z,10540
2016-04-04T10:54:23.986Z,10056
2016-04-04T10:55:23.988Z,9732
2016-04-04T10:56:24.006Z,9728
2016-04-04T10:57:24.009Z,9756
2016-04-04T10:58:24.028Z,9772
2016-04-04T10:59:24.014Z,9768
2016-04-04T11:00:24.017Z,9764
2016-04-04T11:01:24.067Z,9784
2016-04-04T11:02:27.055Z,9604
2016-04-04T11:03:24.072Z,9232
2016-04-04T11:04:24.060Z,8664
2016-04-04T11:05:24.046Z,7964
2016-04-04T11:06:24.050Z,7364
2016-04-04T11:07:24.115Z,7048
2016-04-04T11:08:23.940Z,7044
2016-04-04T11:09:24.067Z,7192
2016-04-04T11:10:24.085Z,7404
2016-04-04T11:11:24.072Z,7656
2016-04-04T11:12:24.090Z,7824
2016-04-04T11:13:24.093Z,8396
2016-04-04T11:14:24.143Z,8504
2016-04-04T11:15:24.114Z,9008
2016-04-04T11:16:24.133Z,9460
2016-04-04T11:17:24.120Z,9760
2016-04-04T11:18:24.139Z,10136
2016-04-04T11:19:24.094Z,10692
2016-04-04T11:20:24.128Z,12548
2016-04-04T11:21:24.194Z,13256
2016-04-04T11:22:24.165Z,12236
2016-04-04T11:23:24.152Z,11832
2016-04-04T11:24:24.155Z,11296
2016-04-04T11:25:24.158Z,11184
2016-04-04T11:26:24.160Z,11112
2016-04-04T11:27:24.163Z,9512
2016-04-04T11:28:24.181Z,10480
2016-04-04T11:29:24.246Z,10416
2016-04-04T11:30:24.171Z,9912
2016-04-04T11:31:24.188Z,8336
2016-04-04T11:32:24.207Z,7844
2016-04-04T11:33:24.209Z,7684
2016-04-04T11:34:24.228Z,7520
2016-04-04T11:35:24.231Z,8148
2016-04-04T11:36:24.217Z,8760
2016-04-04T11:37:24.220Z,8832
2016-04-04T11:38:24.229Z,7956
2016-04-04T11:39:24.231Z,7492
2016-04-04T11:40:24.265Z,7292
2016-04-04T11:41:24.267Z,7268
2016-04-04T11:42:24.301Z,7460
2016-04-04T11:43:24.289Z,7708
2016-04-04T11:44:24.322Z,7980
2016-04-04T11:45:24.278Z,8112
2016-04-04T11:46:24.296Z,8136
2016-04-04T11:47:24.299Z,8288
2016-04-04T11:48:24.286Z,8552
2016-04-04T11:49:24.272Z,8636
2016-04-04T11:50:24.322Z,8572
2016-04-04T11:51:24.310Z,8656
2016-04-04T11:52:24.313Z,8868
2016-04-04T11:53:24.299Z,9136
2016-04-04T11:54:24.350Z,9372
2016-04-04T11:55:24.352Z,9596
2016-04-04T11:56:24.355Z,9936
2016-04-04T11:57:24.327Z,10512
2016-04-04T11:58:24.344Z,10768
2016-04-04T11:59:24.347Z,11296
2016-04-04T12:00:24.349Z,12084
2016-04-04T12:01:24.384Z,12912
2016-04-04T12:02:24.355Z,12828
2016-04-04T12:03:24.373Z,12172
2016-04-04T12:04:24.376Z,11508
2016-04-04T12:05:24.394Z,9980
2016-04-04T12:06:24.412Z,9292
2016-04-04T12:07:24.431Z,8916
2016-04-04T12:08:24.386Z,8956
2016-04-04T12:09:24.406Z,9108
2016-04-04T12:10:24.392Z,9404
2016-04-04T12:11:24.426Z,9676
2016-04-04T12:12:24.460Z,9636
2016-04-04T12:13:24.417Z,9448
2016-04-04T12:14:24.434Z,9044
2016-04-04T12:15:24.453Z,8640
2016-04-04T12:16:24.486Z,8340
2016-04-04T12:17:24.489Z,8296
2016-04-04T12:18:24.461Z,8544
2016-04-04T12:19:24.478Z,9052
2016-04-04T12:20:24.467Z,9552
2016-04-04T12:21:24.469Z,9716
2016-04-04T12:22:24.472Z,9628
2016-04-04T12:23:24.506Z,9312
2016-04-04T12:24:24.492Z,9092
2016-04-04T12:25:24.480Z,9116
2016-04-04T12:26:24.498Z,9096
2016-04-04T12:27:24.344Z,8896
2016-04-04T12:28:24.503Z,8692
2016-04-04T12:29:24.490Z,8768
2016-04-04T12:30:24.508Z,8904
2016-04-04T12:31:24.543Z,8780
2016-04-04T12:32:24.545Z,8544
2016-04-04T12:33:24.548Z,8500
2016-04-04T12:34:24.565Z,8504
2016-04-04T12:35:24.568Z,8768
2016-04-04T12:36:24.524Z,9196
2016-04-04T12:37:24.590Z,9632
2016-04-04T12:38:24.576Z,9872
2016-04-04T12:39:24.580Z,9820
2016-04-04T12:40:24.660Z,9744
2016-04-04T12:41:24.585Z,9644
2016-04-04T12:42:24.588Z,9772
2016-04-04T12:43:24.559Z,10224
2016-04-04T12:44:24.640Z,11296
2016-04-04T12:45:24.595Z,10624
2016-04-04T12:46:24.614Z,10172
2016-04-04T12:47:24.601Z,9204
2016-04-04T12:48:24.603Z,8536
2016-04-04T12:49:24.591Z,8448
2016-04-04T12:50:24.609Z,8440
2016-04-04T12:51:24.627Z,8220
2016-04-04T12:52:24.630Z,7972
2016-04-04T12:53:24.648Z,8112
2016-04-04T12:54:24.651Z,8528
2016-04-04T12:55:24.638Z,8740
2016-04-04T12:56:24.656Z,8440
2016-04-04T12:57:24.644Z,8004
2016-04-04T12:58:24.677Z,7788
2016-04-04T12:59:24.696Z,7784
2016-04-04T13:00:24.714Z,8048
2016-04-04T13:01:24.671Z,8576
2016-04-04T13:02:24.704Z,8972
2016-04-04T13:03:24.691Z,9636
2016-04-04T13:04:24.678Z,9976
2016-04-04T13:05:24.712Z,9848
2016-04-04T13:06:24.730Z,9452
2016-04-04T13:07:24.717Z,8972
2016-04-04T13:08:24.721Z,8456
2016-04-04T13:09:24.754Z,8120
2016-04-04T13:10:24.773Z,7700
2016-04-04T13:11:24.729Z,7124
2016-04-04T13:12:24.746Z,6864
2016-04-04T13:13:24.749Z,6884
2016-04-04T13:14:24.736Z,7040
2016-04-04T13:15:24.739Z,7288
2016-04-04T13:16:24.804Z,7448
2016-04-04T13:17:24.744Z,7632
2016-04-04T13:18:24.762Z,7940
2016-04-04T13:19:24.828Z,8484
2016-04-04T13:20:24.799Z,9092
2016-04-04T13:21:24.802Z,10440
2016-04-04T13:22:24.772Z,12028
2016-04-04T13:23:24.791Z,12732
2016-04-04T13:24:24.810Z,13496
2016-04-04T13:25:24.656Z,13320
2016-04-04T13:26:24.815Z,12712
2016-04-04T13:27:24.866Z,12440
2016-04-04T13:28:24.836Z,12140
2016-04-04T13:29:26.308Z,11608
2016-04-04T13:30:24.842Z,11116
2016-04-04T13:31:24.844Z,10864
2016-04-04T13:32:24.832Z,10780
2016-04-04T13:33:24.850Z,10588
2016-04-04T13:34:24.868Z,10476
2016-04-04T13:35:24.871Z,10272
2016-04-04T13:36:24.842Z,9404
2016-04-04T13:37:24.845Z,8472
2016-04-04T13:38:24.863Z,7648
2016-04-04T13:39:24.912Z,7276
2016-04-04T13:40:24.900Z,7264
2016-04-04T13:41:24.933Z,7508
2016-04-04T13:42:24.951Z,7824
2016-04-04T13:43:24.970Z,8164
2016-04-04T13:44:24.957Z,8428
2016-04-04T13:45:24.928Z,8612